createdAt,value
2024-01-16T00:02:18.424Z,-3.36
2024-01-16T00:07:29.604Z,-3.49
2024-01-16T00:12:34.544Z,-3.62
2024-01-16T00:17:48.456Z,-3.71
2024-01-16T00:23:01.137Z,-3.76
2024-01-16T00:28:15.768Z,-3.78
2024-01-16T00:33:17.633Z,-3.83
2024-01-16T00:38:25.524Z,-3.87
2024-01-16T00:43:49.747Z,-3.95
2024-01-16T00:49:07.787Z,-4.04
2024-01-16T00:54:43.434Z,-4.09
2024-01-16T00:59:45.882Z,-4.11
2024-01-16T01:04:56.727Z,-4.13
2024-01-16T01:10:00.894Z,-4.17
2024-01-16T01:15:14.516Z,-4.19
2024-01-16T01:20:18.681Z,-4.24
2024-01-16T01:25:28.778Z,-4.31
2024-01-16T01:30:55.921Z,-4.37
2024-01-16T01:36:06.382Z,-4.38
2024-01-16T01:41:33.986Z,-4.34
2024-01-16T01:46:48.883Z,-4.35
2024-01-16T01:52:11.092Z,-4.30
2024-01-16T01:57:13.703Z,-4.25
2024-01-16T02:02:35.812Z,-4.14
2024-01-16T02:07:58.534Z,-4.09
2024-01-16T02:13:15.839Z,-4.13
2024-01-16T02:19:05.434Z,-4.25
2024-01-16T02:24:12.142Z,-4.37
2024-01-16T02:29:17.454Z,-4.45
2024-01-16T02:34:25.128Z,-4.55
2024-01-16T02:40:04.303Z,-4.61
2024-01-16T02:45:52.504Z,-4.67
2024-01-16T02:51:55.016Z,-4.72
2024-01-16T02:57:02.911Z,-4.79
2024-01-16T03:02:32.034Z,-4.84
2024-01-16T03:07:37.923Z,-4.90
2024-01-16T03:12:59.122Z,-4.93
2024-01-16T03:18:25.094Z,-4.99
2024-01-16T03:23:46.131Z,-5.06
2024-01-16T03:29:13.612Z,-5.09
2024-01-16T03:34:25.890Z,-5.10
2024-01-16T03:39:38.081Z,-5.13
2024-01-16T03:45:02.034Z,-5.19
2024-01-16T03:50:45.508Z,-5.25
2024-01-16T03:55:56.855Z,-5.30
2024-01-16T04:01:39.232Z,-5.33
2024-01-16T04:07:12.059Z,-5.36
2024-01-16T04:12:37.312Z,-5.39
2024-01-16T04:17:58.983Z,-5.48
2024-01-16T04:24:08.699Z,-5.48
2024-01-16T04:30:00.489Z,-5.54
2024-01-16T04:35:22.896Z,-5.57
2024-01-16T04:40:29.502Z,-5.56
2024-01-16T04:45:43.675Z,-5.57
2024-01-16T04:51:01.459Z,-5.61
2024-01-16T04:56:11.829Z,-5.65
2024-01-16T05:01:16.538Z,-5.68
2024-01-16T05:07:08.222Z,-5.77
2024-01-16T05:12:39.056Z,-5.84
2024-01-16T05:17:40.951Z,-5.89
2024-01-16T05:22:58.448Z,-5.92
2024-01-16T05:28:25.092Z,-5.97
2024-01-16T05:33:50.340Z,-6.00
2024-01-16T05:39:15.533Z,-6.04
2024-01-16T05:44:19.907Z,-6.05
2024-01-16T05:49:52.247Z,-6.06
2024-01-16T05:54:58.669Z,-6.05
2024-01-16T06:00:23.452Z,-6.07
2024-01-16T06:05:40.881Z,-6.11
2024-01-16T06:10:51.845Z,-6.08
2024-01-16T06:15:53.573Z,-6.05
2024-01-16T06:20:55.527Z,-6.07
2024-01-16T06:26:20.910Z,-6.07
2024-01-16T06:31:31.983Z,-6.10
2024-01-16T06:36:38.841Z,-6.11
2024-01-16T06:41:44.535Z,-6.12
2024-01-16T06:46:49.024Z,-6.13
2024-01-16T06:52:13.788Z,-6.13
2024-01-16T06:57:15.530Z,-6.15
2024-01-16T07:02:17.474Z,-6.13
2024-01-16T07:07:41.131Z,-6.12
2024-01-16T07:12:46.102Z,-6.10
2024-01-16T07:17:51.194Z,-6.05
2024-01-16T07:22:56.596Z,-5.98
2024-01-16T07:27:58.526Z,-5.88
2024-01-16T07:33:00.745Z,-5.80
2024-01-16T07:38:05.821Z,-5.74
2024-01-16T07:43:07.806Z,-5.67
2024-01-16T07:48:09.834Z,-5.58
2024-01-16T07:53:12.355Z,-5.46
2024-01-16T07:58:17.664Z,-5.37
2024-01-16T08:03:19.348Z,-5.34
2024-01-16T08:08:21.384Z,-5.25
2024-01-16T08:13:23.185Z,-5.11
2024-01-16T08:18:25.533Z,-4.98
2024-01-16T08:23:42.096Z,-4.80
2024-01-16T08:28:48.710Z,-4.69
2024-01-16T08:33:58.248Z,-4.58
2024-01-16T08:39:03.504Z,-4.56
2024-01-16T08:44:05.193Z,-4.37
2024-01-16T08:49:07.081Z,-4.28
2024-01-16T08:54:09.058Z,-4.17
2024-01-16T08:59:13.677Z,-4.09
2024-01-16T09:04:20.781Z,-4.06
2024-01-16T09:09:36.339Z,-3.88
2024-01-16T09:14:38.825Z,-3.83
2024-01-16T09:19:49.302Z,-3.87
2024-01-16T09:24:53.799Z,-3.93
2024-01-16T09:29:58.171Z,-4.06
2024-01-16T09:35:04.944Z,-4.15
2024-01-16T09:40:09.313Z,-4.16
2024-01-16T09:45:16.505Z,-4.20
2024-01-16T09:50:28.130Z,-4.13
2024-01-16T09:55:30.042Z,-3.97
2024-01-16T10:00:56.387Z,-4.04
2024-01-16T10:06:00.521Z,-4.05
2024-01-16T10:11:09.251Z,-3.82
2024-01-16T10:16:17.091Z,-3.78
2024-01-16T10:21:44.374Z,-3.67
2024-01-16T10:26:58.064Z,-3.54
2024-01-16T10:32:00.887Z,-3.32
2024-01-16T10:37:23.054Z,-3.19
2024-01-16T10:42:46.494Z,-3.31
2024-01-16T10:47:49.040Z,-3.46
2024-01-16T10:52:52.967Z,-3.38
2024-01-16T10:58:01.230Z,-3.26
2024-01-16T11:03:10.606Z,-3.16
2024-01-16T11:08:17.462Z,-3.13
2024-01-16T11:13:22.813Z,-3.00
2024-01-16T11:18:27.720Z,-2.92
2024-01-16T11:23:33.014Z,-2.94
2024-01-16T11:28:52.196Z,-3.00
2024-01-16T11:33:57.007Z,-2.76
2024-01-16T11:38:59.302Z,-2.67
2024-01-16T11:44:01.044Z,-2.73
2024-01-16T11:49:05.480Z,-2.74
2024-01-16T11:54:12.115Z,-2.84
2024-01-16T11:59:55.326Z,-2.85
2024-01-16T12:04:57.257Z,-3.01
2024-01-16T12:10:05.162Z,-2.99
2024-01-16T12:15:07.505Z,-3.00
2024-01-16T12:20:20.430Z,-3.02
2024-01-16T12:25:22.392Z,-3.13
2024-01-16T12:30:28.734Z,-3.11
2024-01-16T12:35:45.327Z,-3.19
2024-01-16T12:40:54.880Z,-3.22
2024-01-16T12:46:02.085Z,-3.29
2024-01-16T12:51:17.693Z,-3.31
2024-01-16T12:56:31.780Z,-3.33
2024-01-16T13:02:01.837Z,-3.34
2024-01-16T13:07:16.999Z,-3.39
2024-01-16T13:12:22.334Z,-3.42
2024-01-16T13:17:27.093Z,-3.42
2024-01-16T13:22:43.316Z,-3.43
2024-01-16T13:27:55.303Z,-3.44
2024-01-16T13:32:57.352Z,-3.47
2024-01-16T13:38:04.478Z,-3.49
2024-01-16T13:43:08.930Z,-3.61
2024-01-16T13:48:33.695Z,-3.73
2024-01-16T13:53:38.925Z,-3.87
2024-01-16T13:58:40.574Z,-3.91
2024-01-16T14:03:47.438Z,-3.84
2024-01-16T14:08:51.601Z,-3.76
2024-01-16T14:13:53.818Z,-3.76
2024-01-16T14:19:07.355Z,-3.71
2024-01-16T14:24:10.472Z,-3.73
2024-01-16T14:29:16.115Z,-3.70
2024-01-16T14:34:21.319Z,-3.69
2024-01-16T14:40:01.888Z,-3.73
2024-01-16T14:45:12.047Z,-3.91
2024-01-16T14:50:24.081Z,-3.97
2024-01-16T14:55:29.313Z,-4.03
2024-01-16T15:00:33.467Z,-4.09
2024-01-16T15:05:35.320Z,-4.22
2024-01-16T15:10:42.889Z,-4.34
2024-01-16T15:15:57.699Z,-4.47
2024-01-16T15:21:02.965Z,-4.60
2024-01-16T15:26:15.379Z,-4.71
2024-01-16T15:31:22.132Z,-4.71
2024-01-16T15:36:35.162Z,-4.76
2024-01-16T15:41:38.448Z,-4.76
2024-01-16T15:47:01.826Z,-4.82
2024-01-16T15:52:04.195Z,-4.95
2024-01-16T15:57:09.859Z,-5.07
2024-01-16T16:02:21.196Z,-5.16
2024-01-16T16:07:25.585Z,-5.20
2024-01-16T16:12:38.263Z,-5.34
2024-01-16T16:18:11.592Z,-5.58
2024-01-16T16:23:18.770Z,-5.71
2024-01-16T16:28:23.254Z,-5.65
2024-01-16T16:33:25.346Z,-5.54
2024-01-16T16:38:27.362Z,-5.64
2024-01-16T16:43:51.554Z,-5.67
2024-01-16T16:48:53.583Z,-5.79
2024-01-16T16:53:58.213Z,-5.88
2024-01-16T16:58:59.995Z,-5.99
2024-01-16T17:04:09.594Z,-6.12
2024-01-16T17:09:12.153Z,-6.19
2024-01-16T17:19:17.535Z,-6.50
2024-01-16T17:24:19.295Z,-6.76
2024-01-16T17:29:32.667Z,-6.76
2024-01-16T17:34:37.106Z,-6.71
2024-01-16T17:39:39.255Z,-6.76
2024-01-16T17:44:53.372Z,-6.90
2024-01-16T17:49:55.815Z,-7.16
2024-01-16T17:55:07.229Z,-7.33
2024-01-16T18:00:12.632Z,-7.43
2024-01-16T18:05:24.200Z,-7.65
2024-01-16T18:10:34.695Z,-8.15
2024-01-16T18:15:37.245Z,-8.42
2024-01-16T18:20:50.884Z,-8.24
2024-01-16T18:25:58.146Z,-8.05
2024-01-16T18:31:04.958Z,-8.09
2024-01-16T18:36:07.313Z,-7.87
2024-01-16T18:41:09.572Z,-7.52
2024-01-16T18:46:23.355Z,-7.33
2024-01-16T18:51:39.289Z,-7.61
2024-01-16T18:56:52.686Z,-8.00
2024-01-16T19:01:59.404Z,-8.33
2024-01-16T19:07:12.179Z,-8.34
2024-01-16T19:12:13.975Z,-8.61
2024-01-16T19:17:15.876Z,-8.76
2024-01-16T19:22:20.962Z,-8.80
2024-01-16T19:27:22.830Z,-9.24
2024-01-16T19:32:28.239Z,-9.78
2024-01-16T19:37:30.084Z,-10.20
2024-01-16T19:42:31.700Z,-10.41
2024-01-16T19:47:41.409Z,-10.40
2024-01-16T19:52:43.653Z,-10.24
2024-01-16T19:57:49.237Z,-10.11
2024-01-16T20:02:55.440Z,-9.99
2024-01-16T20:07:57.258Z,-9.98
2024-01-16T20:13:03.362Z,-10.13
2024-01-16T20:18:09.243Z,-10.33
2024-01-16T20:23:12.880Z,-10.38
2024-01-16T20:28:15.721Z,-10.32
2024-01-16T20:33:17.864Z,-10.32
2024-01-16T20:38:19.757Z,-10.48
2024-01-16T20:43:21.801Z,-10.40
2024-01-16T20:48:52.934Z,-10.40
2024-01-16T20:54:03.553Z,-10.53
2024-01-16T20:59:28.325Z,-10.52
2024-01-16T21:04:30.374Z,-10.40
2024-01-16T21:09:39.582Z,-10.36
2024-01-16T21:14:44.532Z,-10.57
2024-01-16T21:19:57.449Z,-10.90
2024-01-16T21:24:59.338Z,-11.04
2024-01-16T21:30:01.319Z,-11.07
2024-01-16T21:35:18.167Z,-11.12
2024-01-16T21:40:20.409Z,-11.01
2024-01-16T21:45:31.913Z,-10.80
2024-01-16T21:50:38.310Z,-10.81
2024-01-16T21:56:07.138Z,-10.88
2024-01-16T22:01:36.609Z,-10.81
2024-01-16T22:06:38.672Z,-10.63
2024-01-16T22:12:00.112Z,-10.62
2024-01-16T22:17:35.456Z,-10.62
2024-01-16T22:22:41.151Z,-10.59
2024-01-16T22:28:48.245Z,-10.53
2024-01-16T22:34:00.953Z,-10.41
2024-01-16T22:40:06.386Z,-10.33
2024-01-16T22:45:20.953Z,-10.30
2024-01-16T22:51:01.304Z,-10.20
2024-01-16T22:56:30.107Z,-9.97
2024-01-16T23:02:54.992Z,-9.87
2024-01-16T23:08:32.891Z,-9.85
2024-01-16T23:14:03.196Z,-9.74
2024-01-16T23:19:47.501Z,-9.70
2024-01-16T23:25:37.373Z,-9.64
2024-01-16T23:31:21.111Z,-9.64
2024-01-16T23:37:17.241Z,-9.62
2024-01-16T23:42:42.376Z,-9.69
2024-01-16T23:48:18.885Z,-9.75
2024-01-16T23:54:02.891Z,-9.71
2024-01-16T23:59:40.520Z,-9.69
